createdAt,value
2023-01-21T00:00:17.982Z,402
2023-01-21T00:01:16.418Z,395
2023-01-21T00:02:16.880Z,393
2023-01-21T00:03:16.251Z,389
2023-01-21T00:04:16.257Z,390
2023-01-21T00:05:16.741Z,399
2023-01-21T00:06:16.337Z,400
2023-01-21T00:07:16.395Z,402
2023-01-21T00:09:16.360Z,392
2023-01-21T00:10:16.738Z,405
2023-01-21T00:12:16.552Z,402
2023-01-21T00:13:16.372Z,401
2023-01-21T00:14:16.476Z,408
2023-01-21T00:15:16.815Z,409
2023-01-21T00:16:16.814Z,394
2023-01-21T00:17:16.613Z,405
2023-01-21T00:18:16.583Z,397
2023-01-21T00:19:17.098Z,394
2023-01-21T00:20:16.951Z,401
2023-01-21T00:22:16.566Z,406
2023-01-21T00:23:16.412Z,414
2023-01-21T00:24:16.440Z,410
2023-01-21T00:25:16.852Z,413
2023-01-21T00:26:16.814Z,409
2023-01-21T00:27:16.274Z,412
2023-01-21T00:28:16.767Z,417
2023-01-21T00:29:16.842Z,415
2023-01-21T00:30:17.469Z,410
2023-01-21T00:32:16.221Z,405
2023-01-21T00:33:16.023Z,406
2023-01-21T00:34:16.795Z,411
2023-01-21T00:36:16.579Z,414
2023-01-21T00:37:16.138Z,422
2023-01-21T00:38:16.027Z,424
2023-01-21T00:39:16.558Z,423
2023-01-21T00:40:16.597Z,420
2023-01-21T00:41:16.730Z,412
2023-01-21T00:42:16.494Z,408
2023-01-21T00:43:16.375Z,411
2023-01-21T00:44:16.519Z,422
2023-01-21T00:45:16.860Z,428
2023-01-21T00:46:16.489Z,420
2023-01-21T00:47:16.395Z,413
2023-01-21T00:48:16.345Z,420
2023-01-21T00:49:16.386Z,414
2023-01-21T00:51:16.847Z,418
2023-01-21T00:52:16.477Z,414
2023-01-21T00:53:16.101Z,416
2023-01-21T00:54:16.194Z,425
2023-01-21T00:55:16.435Z,417
2023-01-21T00:56:16.288Z,415
2023-01-21T00:57:15.697Z,411
2023-01-21T00:58:16.202Z,398
2023-01-21T00:59:16.549Z,395
2023-01-21T01:00:17.542Z,407
2023-01-21T01:01:17.429Z,423
2023-01-21T01:02:16.656Z,419
2023-01-21T01:03:16.673Z,406
2023-01-21T01:04:16.310Z,397
2023-01-21T01:05:16.328Z,407
2023-01-21T01:06:16.035Z,422
2023-01-21T01:07:16.193Z,420
2023-01-21T01:08:16.361Z,424
2023-01-21T01:09:16.464Z,415
2023-01-21T01:10:16.601Z,414
2023-01-21T01:11:16.115Z,412
2023-01-21T01:12:16.355Z,399
2023-01-21T01:13:16.078Z,403
2023-01-21T01:14:16.398Z,399
2023-01-21T01:15:18.179Z,414
2023-01-21T01:16:16.199Z,420
2023-01-21T01:17:16.335Z,412
2023-01-21T01:18:16.107Z,406
2023-01-21T01:20:16.936Z,401
2023-01-21T01:21:16.393Z,397
2023-01-21T01:22:16.170Z,405
2023-01-21T01:23:16.291Z,406
2023-01-21T01:24:16.299Z,400
2023-01-21T01:25:16.632Z,399
2023-01-21T01:27:16.197Z,402
2023-01-21T01:28:16.105Z,394
2023-01-21T01:29:16.381Z,397
2023-01-21T01:30:16.795Z,391
2023-01-21T01:31:16.827Z,401
2023-01-21T01:32:16.717Z,388
2023-01-21T01:33:16.611Z,390
2023-01-21T01:34:16.565Z,392
2023-01-21T01:35:21.442Z,394
2023-01-21T01:36:16.248Z,403
2023-01-21T01:37:16.096Z,415
2023-01-21T01:38:16.234Z,421
2023-01-21T01:39:16.502Z,415
2023-01-21T01:40:16.705Z,414
2023-01-21T01:41:16.836Z,420
2023-01-21T01:42:16.461Z,406
2023-01-21T01:43:16.339Z,408
2023-01-21T01:44:16.247Z,394
2023-01-21T01:45:16.824Z,398
2023-01-21T01:46:16.719Z,395
2023-01-21T01:47:17.005Z,387
2023-01-21T01:48:16.256Z,391
2023-01-21T01:49:16.369Z,404
2023-01-21T01:50:16.487Z,413
2023-01-21T01:51:30.351Z,403
2023-01-21T01:52:16.521Z,408
2023-01-21T01:53:16.368Z,402
2023-01-21T01:54:16.168Z,397
2023-01-21T01:55:16.404Z,404
2023-01-21T01:56:16.390Z,405
2023-01-21T01:57:16.403Z,404
2023-01-21T01:58:16.182Z,403
2023-01-21T01:59:16.301Z,404
2023-01-21T02:00:17.255Z,406
2023-01-21T02:01:16.388Z,408
2023-01-21T02:02:16.360Z,403
2023-01-21T02:03:16.442Z,401
2023-01-21T02:04:16.605Z,403
2023-01-21T02:05:16.557Z,404
2023-01-21T02:06:16.328Z,401
2023-01-21T02:07:16.477Z,409
2023-01-21T02:08:16.384Z,401
2023-01-21T02:09:16.571Z,406
2023-01-21T02:10:16.927Z,407
2023-01-21T02:11:16.385Z,415
2023-01-21T02:12:16.357Z,410
2023-01-21T02:13:16.313Z,402
2023-01-21T02:14:16.501Z,403
2023-01-21T02:15:16.670Z,398
2023-01-21T02:16:16.553Z,389
2023-01-21T02:17:16.432Z,390
2023-01-21T02:18:16.540Z,391
2023-01-21T02:19:16.572Z,399
2023-01-21T02:20:17.058Z,400
2023-01-21T02:21:16.520Z,409
2023-01-21T02:22:16.420Z,413
2023-01-21T02:23:16.434Z,417
2023-01-21T02:24:16.334Z,422
2023-01-21T02:25:16.550Z,424
2023-01-21T02:26:16.313Z,419
2023-01-21T02:27:16.235Z,418
2023-01-21T02:28:16.127Z,410
2023-01-21T02:29:16.202Z,425
2023-01-21T02:30:17.122Z,424
2023-01-21T02:31:16.664Z,417
2023-01-21T02:32:16.249Z,419
2023-01-21T02:34:16.283Z,410
2023-01-21T02:35:16.376Z,413
2023-01-21T02:36:16.305Z,415
2023-01-21T02:37:16.169Z,412
2023-01-21T02:38:16.855Z,424
2023-01-21T02:39:16.300Z,425
2023-01-21T02:40:16.864Z,420
2023-01-21T02:41:16.671Z,431
2023-01-21T02:42:16.986Z,436
2023-01-21T02:43:16.603Z,431
2023-01-21T02:44:16.768Z,425
2023-01-21T02:45:16.811Z,427
2023-01-21T02:46:16.682Z,431
2023-01-21T02:47:17.078Z,430
2023-01-21T02:48:16.257Z,442
2023-01-21T02:49:16.419Z,433
2023-01-21T02:50:16.747Z,429
2023-01-21T02:52:16.588Z,436
2023-01-21T02:53:16.485Z,428
2023-01-21T02:54:16.618Z,426
2023-01-21T02:55:16.878Z,424
2023-01-21T02:56:16.260Z,428
2023-01-21T02:57:16.543Z,419
2023-01-21T02:58:16.373Z,415
2023-01-21T02:59:16.995Z,421
2023-01-21T03:00:17.434Z,412
2023-01-21T03:01:16.979Z,421
2023-01-21T03:02:16.984Z,426
2023-01-21T03:03:16.409Z,420
2023-01-21T03:04:16.621Z,422
2023-01-21T03:07:16.837Z,426
2023-01-21T03:08:16.715Z,418
2023-01-21T03:09:16.793Z,419
2023-01-21T03:10:16.974Z,420
2023-01-21T03:11:16.278Z,423
2023-01-21T03:12:16.261Z,417
2023-01-21T03:13:16.312Z,421
2023-01-21T03:14:16.253Z,420
2023-01-21T03:15:16.940Z,416
2023-01-21T03:16:16.903Z,417
2023-01-21T03:17:17.009Z,420
2023-01-21T03:18:16.210Z,425
2023-01-21T03:19:16.476Z,427
2023-01-21T03:20:16.423Z,423
2023-01-21T03:21:16.601Z,413
2023-01-21T03:22:16.426Z,417
2023-01-21T03:23:16.474Z,434
2023-01-21T03:24:16.619Z,426
2023-01-21T03:25:16.202Z,421
2023-01-21T03:26:16.410Z,418
2023-01-21T03:27:16.446Z,419
2023-01-21T03:28:16.368Z,423
2023-01-21T03:30:17.011Z,415
2023-01-21T03:32:16.681Z,416
2023-01-21T03:33:16.812Z,419
2023-01-21T03:34:16.829Z,412
2023-01-21T03:35:16.693Z,423
2023-01-21T03:36:17.454Z,432
2023-01-21T03:38:16.237Z,430
2023-01-21T03:39:16.490Z,437
2023-01-21T03:40:16.567Z,433
2023-01-21T03:41:16.899Z,432
2023-01-21T03:43:16.542Z,422
2023-01-21T03:44:16.560Z,427
2023-01-21T03:45:16.633Z,423
2023-01-21T03:46:16.552Z,421
2023-01-21T03:47:16.772Z,418
2023-01-21T03:48:16.600Z,419
2023-01-21T03:49:16.360Z,421
2023-01-21T03:50:16.576Z,423
2023-01-21T03:51:16.258Z,411
2023-01-21T03:52:16.135Z,414
2023-01-21T03:53:16.284Z,419
2023-01-21T03:54:16.383Z,416
2023-01-21T03:56:16.342Z,424
2023-01-21T03:57:16.577Z,433
2023-01-21T03:58:16.374Z,431
2023-01-21T03:59:16.438Z,435
2023-01-21T04:00:17.174Z,427
2023-01-21T04:01:16.576Z,430
2023-01-21T04:02:16.265Z,436
2023-01-21T04:03:16.439Z,424
2023-01-21T04:04:16.475Z,416
2023-01-21T04:05:16.624Z,418
2023-01-21T04:07:16.259Z,422
2023-01-21T04:08:16.416Z,423
2023-01-21T04:09:16.770Z,428
2023-01-21T04:10:17.353Z,426
2023-01-21T04:11:16.594Z,419
2023-01-21T04:13:16.690Z,426
2023-01-21T04:14:16.737Z,422
2023-01-21T04:15:16.565Z,429
2023-01-21T04:16:16.934Z,430
2023-01-21T04:17:16.731Z,433
2023-01-21T04:18:17.459Z,436
2023-01-21T04:19:17.036Z,435
2023-01-21T04:20:16.853Z,442
2023-01-21T04:21:16.599Z,436
2023-01-21T04:22:17.293Z,426
2023-01-21T04:23:16.950Z,429
2023-01-21T04:24:16.783Z,437
2023-01-21T04:25:16.945Z,431
2023-01-21T04:26:17.011Z,436
2023-01-21T04:27:16.749Z,431
2023-01-21T04:28:17.362Z,429
2023-01-21T04:30:17.863Z,422
2023-01-21T04:31:16.809Z,425
2023-01-21T04:32:16.407Z,429
2023-01-21T04:33:16.713Z,426
2023-01-21T04:34:16.761Z,433
2023-01-21T04:36:16.799Z,435
2023-01-21T04:37:17.114Z,427
2023-01-21T04:38:16.958Z,430
2023-01-21T04:39:16.593Z,425
2023-01-21T04:40:16.852Z,422
2023-01-21T04:41:16.529Z,424
2023-01-21T04:42:16.479Z,433
2023-01-21T04:43:16.651Z,432
2023-01-21T04:44:16.181Z,423
2023-01-21T04:45:16.430Z,422
2023-01-21T04:46:16.606Z,416
2023-01-21T04:47:15.589Z,429
2023-01-21T04:48:16.755Z,432
2023-01-21T04:49:16.304Z,433
2023-01-21T04:50:16.386Z,434
2023-01-21T04:51:16.766Z,433
2023-01-21T04:52:16.677Z,429
2023-01-21T04:53:16.445Z,431
2023-01-21T04:55:16.943Z,429
2023-01-21T04:56:16.543Z,441
2023-01-21T04:58:15.963Z,430
2023-01-21T04:59:16.915Z,437
2023-01-21T05:01:16.221Z,426
2023-01-21T05:03:16.879Z,427
2023-01-21T05:04:16.660Z,434
2023-01-21T05:05:16.691Z,429
2023-01-21T05:07:16.169Z,426
2023-01-21T05:08:16.299Z,428
2023-01-21T05:09:16.211Z,436
2023-01-21T05:10:17.058Z,442
2023-01-21T05:11:16.201Z,430
2023-01-21T05:12:16.197Z,427
2023-01-21T05:13:16.222Z,441
2023-01-21T05:14:16.295Z,448
2023-01-21T05:15:16.611Z,442
2023-01-21T05:16:16.975Z,433
2023-01-21T05:17:16.846Z,425
2023-01-21T05:18:16.466Z,416
2023-01-21T05:19:16.739Z,430
2023-01-21T05:20:17.319Z,442
2023-01-21T05:21:16.593Z,441
2023-01-21T05:22:16.887Z,446
2023-01-21T05:23:16.904Z,452
2023-01-21T05:24:16.761Z,443
2023-01-21T05:25:17.040Z,441
2023-01-21T05:26:16.055Z,436
2023-01-21T05:27:16.753Z,443
2023-01-21T05:28:16.898Z,442
2023-01-21T05:29:16.872Z,440
2023-01-21T05:30:17.404Z,446
2023-01-21T05:31:16.656Z,435
2023-01-21T05:32:16.746Z,433
2023-01-21T05:33:16.923Z,430
2023-01-21T05:34:16.996Z,433
2023-01-21T05:35:16.549Z,428
2023-01-21T05:36:16.594Z,425
2023-01-21T05:37:16.381Z,434
2023-01-21T05:38:16.715Z,431
2023-01-21T05:39:16.818Z,416
2023-01-21T05:40:17.117Z,418
2023-01-21T05:41:16.346Z,423
2023-01-21T05:42:16.391Z,418
2023-01-21T05:43:16.939Z,420
2023-01-21T05:44:17.738Z,424
2023-01-21T05:46:16.257Z,418
2023-01-21T05:47:16.585Z,431
2023-01-21T05:48:16.625Z,433
2023-01-21T05:49:16.582Z,435
2023-01-21T05:50:17.242Z,428
2023-01-21T05:51:16.684Z,417
2023-01-21T05:52:16.563Z,425
2023-01-21T05:53:17.062Z,426
2023-01-21T05:54:16.593Z,423
2023-01-21T05:55:16.761Z,413
2023-01-21T05:56:16.012Z,419
2023-01-21T05:57:16.214Z,431
2023-01-21T05:58:16.271Z,416
2023-01-21T05:59:16.301Z,428
2023-01-21T06:00:17.749Z,432
2023-01-21T06:01:16.922Z,432
2023-01-21T06:02:16.854Z,418
2023-01-21T06:03:16.988Z,424
2023-01-21T06:04:16.361Z,417
2023-01-21T06:05:16.903Z,418
2023-01-21T06:06:16.928Z,426
2023-01-21T06:07:16.919Z,431
2023-01-21T06:08:16.993Z,423
2023-01-21T06:09:16.937Z,429
2023-01-21T06:10:17.345Z,435
2023-01-21T06:11:16.531Z,436
2023-01-21T06:12:16.697Z,424
2023-01-21T06:13:16.681Z,427
2023-01-21T06:14:17.067Z,436
2023-01-21T06:15:16.977Z,431
2023-01-21T06:16:16.089Z,427
2023-01-21T06:18:16.542Z,421
2023-01-21T06:19:16.985Z,418
2023-01-21T06:20:16.692Z,429
2023-01-21T06:21:16.407Z,441
2023-01-21T06:23:21.370Z,427
2023-01-21T06:24:16.572Z,417
2023-01-21T06:25:17.138Z,422
2023-01-21T06:26:16.140Z,430
2023-01-21T06:27:16.348Z,429
2023-01-21T06:28:16.872Z,430
2023-01-21T06:29:16.276Z,438
2023-01-21T06:30:17.238Z,432
2023-01-21T06:31:16.689Z,437
2023-01-21T06:32:16.644Z,435
2023-01-21T06:33:16.634Z,429
2023-01-21T06:34:17.071Z,428
2023-01-21T06:35:16.685Z,440
2023-01-21T06:36:16.803Z,437
2023-01-21T06:37:17.126Z,446
2023-01-21T06:38:16.080Z,438
2023-01-21T06:39:16.658Z,421
2023-01-21T06:40:17.426Z,431
2023-01-21T06:41:16.741Z,438
2023-01-21T06:42:17.130Z,431
2023-01-21T06:43:16.478Z,426
2023-01-21T06:45:17.247Z,431
2023-01-21T06:46:16.804Z,430
2023-01-21T06:47:16.696Z,438
2023-01-21T06:48:17.073Z,439
2023-01-21T06:49:16.543Z,440
2023-01-21T06:50:17.192Z,439
2023-01-21T06:51:16.844Z,436
2023-01-21T06:52:16.158Z,432
2023-01-21T06:53:16.453Z,429
2023-01-21T06:54:16.468Z,434
2023-01-21T06:55:16.507Z,427
2023-01-21T06:56:16.781Z,418
2023-01-21T06:57:16.871Z,424
2023-01-21T06:58:16.881Z,427
2023-01-21T06:59:16.171Z,433
2023-01-21T07:00:17.614Z,430
2023-01-21T07:01:16.933Z,428
2023-01-21T07:02:16.337Z,425
2023-01-21T07:03:16.924Z,431
2023-01-21T07:04:16.290Z,428
2023-01-21T07:05:17.596Z,432
2023-01-21T07:06:16.432Z,430
2023-01-21T07:07:16.862Z,426
2023-01-21T07:08:16.492Z,433
2023-01-21T07:09:17.080Z,439
2023-01-21T07:10:16.917Z,440
2023-01-21T07:11:16.519Z,439
2023-01-21T07:12:16.218Z,449
2023-01-21T07:13:16.550Z,455
2023-01-21T07:14:17.128Z,463
2023-01-21T07:15:17.167Z,450
2023-01-21T07:16:16.809Z,433
2023-01-21T07:17:16.411Z,446
2023-01-21T07:18:16.849Z,448
2023-01-21T07:19:16.496Z,432
2023-01-21T07:20:16.974Z,437
2023-01-21T07:21:16.479Z,442
2023-01-21T07:22:16.781Z,443
2023-01-21T07:23:17.010Z,447
2023-01-21T07:24:16.308Z,454
2023-01-21T07:25:17.103Z,456
2023-01-21T07:26:16.309Z,466
2023-01-21T07:27:16.832Z,469
2023-01-21T07:28:16.765Z,462
2023-01-21T07:29:16.535Z,456
2023-01-21T07:30:17.273Z,454
2023-01-21T07:31:17.270Z,453
2023-01-21T07:32:16.823Z,454
2023-01-21T07:34:16.331Z,442
2023-01-21T07:35:17.125Z,444
2023-01-21T07:36:16.893Z,448
2023-01-21T07:37:16.454Z,446
2023-01-21T07:38:16.911Z,449
2023-01-21T07:39:17.114Z,443
2023-01-21T07:40:16.811Z,442
2023-01-21T07:41:16.619Z,453
2023-01-21T07:42:16.798Z,449
2023-01-21T07:43:17.104Z,455
2023-01-21T07:44:16.457Z,449
2023-01-21T07:45:17.493Z,445
2023-01-21T07:46:16.618Z,443
2023-01-21T07:47:17.142Z,442
2023-01-21T07:48:16.411Z,451
2023-01-21T07:49:16.901Z,456
2023-01-21T07:50:16.808Z,452
2023-01-21T07:52:16.925Z,458
2023-01-21T07:53:16.189Z,456
2023-01-21T07:55:17.462Z,463
2023-01-21T07:56:16.067Z,460
2023-01-21T07:58:17.139Z,453
2023-01-21T07:59:16.780Z,456
2023-01-21T08:00:17.189Z,463
2023-01-21T08:02:17.265Z,464
2023-01-21T08:03:17.019Z,456
2023-01-21T08:04:16.661Z,465
2023-01-21T08:05:17.045Z,462
2023-01-21T08:06:16.800Z,466
2023-01-21T08:07:16.623Z,458
2023-01-21T08:08:16.548Z,454
2023-01-21T08:09:17.180Z,446
2023-01-21T08:10:16.579Z,445
2023-01-21T08:11:16.712Z,444
2023-01-21T08:12:16.497Z,441
2023-01-21T08:13:16.684Z,433
2023-01-21T08:14:17.146Z,430
2023-01-21T08:15:17.250Z,439
2023-01-21T08:16:17.032Z,435
2023-01-21T08:17:17.356Z,434
2023-01-21T08:18:16.951Z,433
2023-01-21T08:19:16.604Z,436
2023-01-21T08:20:17.096Z,431
2023-01-21T08:21:16.238Z,429
2023-01-21T08:22:17.082Z,427
2023-01-21T08:23:16.477Z,441
2023-01-21T08:26:16.664Z,445
2023-01-21T08:27:17.187Z,432
2023-01-21T08:28:16.978Z,430
2023-01-21T08:29:16.932Z,441
2023-01-21T08:30:16.869Z,445
2023-01-21T08:31:16.697Z,442
2023-01-21T08:33:16.640Z,451
2023-01-21T08:34:16.975Z,443
2023-01-21T08:35:17.523Z,428
2023-01-21T08:36:16.624Z,432
2023-01-21T08:37:16.754Z,440
2023-01-21T08:38:16.453Z,438
2023-01-21T08:40:16.770Z,442
2023-01-21T08:41:16.679Z,444
2023-01-21T08:42:17.056Z,447
2023-01-21T08:43:16.777Z,442
2023-01-21T08:44:16.610Z,438
2023-01-21T08:45:18.068Z,441
2023-01-21T08:46:16.845Z,439
2023-01-21T08:47:17.302Z,443
2023-01-21T08:48:16.787Z,437
2023-01-21T08:49:17.578Z,432
2023-01-21T08:50:16.795Z,440
2023-01-21T08:51:17.032Z,431
2023-01-21T08:52:17.309Z,437
2023-01-21T08:53:17.064Z,442
2023-01-21T08:54:16.519Z,449
2023-01-21T08:55:17.433Z,448
2023-01-21T08:56:16.382Z,450
2023-01-21T08:57:16.732Z,445
2023-01-21T08:58:16.701Z,444
2023-01-21T09:00:17.611Z,451
2023-01-21T09:01:17.020Z,453
2023-01-21T09:02:24.602Z,447
2023-01-21T09:03:17.288Z,440
2023-01-21T09:04:24.979Z,446
2023-01-21T09:05:17.150Z,453
2023-01-21T09:06:16.994Z,450
2023-01-21T09:07:16.430Z,452
2023-01-21T09:08:30.663Z,456
2023-01-21T09:09:16.965Z,450
2023-01-21T09:11:16.838Z,442
2023-01-21T09:12:17.181Z,433
2023-01-21T09:13:17.211Z,438
2023-01-21T09:14:16.784Z,445
2023-01-21T09:15:16.686Z,448
2023-01-21T09:16:17.179Z,433
2023-01-21T09:17:17.099Z,421
2023-01-21T09:18:16.622Z,419
2023-01-21T09:19:16.587Z,425
2023-01-21T09:20:17.078Z,436
2023-01-21T09:21:17.099Z,438
2023-01-21T09:22:16.663Z,435
2023-01-21T09:24:16.576Z,444
2023-01-21T09:25:17.594Z,448
2023-01-21T09:26:17.263Z,454
2023-01-21T09:27:17.115Z,451
2023-01-21T09:28:16.748Z,444
2023-01-21T09:29:16.930Z,447
2023-01-21T09:30:16.854Z,444
2023-01-21T09:31:16.735Z,448
2023-01-21T09:32:16.696Z,452
2023-01-21T09:33:17.359Z,450
2023-01-21T09:34:16.658Z,442
2023-01-21T09:35:17.811Z,445
2023-01-21T09:36:16.682Z,438
2023-01-21T09:37:17.174Z,444
2023-01-21T09:38:16.921Z,438
2023-01-21T09:40:16.834Z,427
2023-01-21T09:41:16.294Z,432
2023-01-21T09:42:17.018Z,430
2023-01-21T09:43:16.349Z,431
2023-01-21T09:44:16.241Z,424
2023-01-21T09:45:17.710Z,430
2023-01-21T09:46:16.652Z,437
2023-01-21T09:47:16.120Z,427
2023-01-21T09:48:16.171Z,434
2023-01-21T09:49:16.441Z,438
2023-01-21T09:50:17.498Z,436
2023-01-21T09:51:17.149Z,443
2023-01-21T09:52:16.758Z,431
2023-01-21T09:53:16.660Z,435
2023-01-21T09:54:16.891Z,429
2023-01-21T09:56:16.904Z,432
2023-01-21T09:57:16.975Z,427
2023-01-21T09:58:16.811Z,415
2023-01-21T09:59:16.782Z,410
2023-01-21T10:00:17.279Z,413
2023-01-21T10:02:16.694Z,412
2023-01-21T10:03:16.384Z,409
2023-01-21T10:05:17.493Z,420
2023-01-21T10:06:17.592Z,419
2023-01-21T10:07:16.891Z,417
2023-01-21T10:08:17.039Z,416
2023-01-21T10:09:16.756Z,423
2023-01-21T10:10:16.862Z,426
2023-01-21T10:11:16.871Z,423
2023-01-21T10:12:16.875Z,418
2023-01-21T10:13:16.794Z,403
2023-01-21T10:14:16.767Z,399
2023-01-21T10:15:16.776Z,414
2023-01-21T10:16:16.718Z,412
2023-01-21T10:17:17.008Z,411
2023-01-21T10:18:16.651Z,407
2023-01-21T10:20:17.208Z,404
2023-01-21T10:21:16.866Z,410
2023-01-21T10:23:16.786Z,408
2023-01-21T10:24:17.231Z,401
2023-01-21T10:25:17.123Z,407
2023-01-21T10:26:16.959Z,405
2023-01-21T10:27:16.687Z,410
2023-01-21T10:28:17.257Z,414
2023-01-21T10:29:16.998Z,402
2023-01-21T10:31:17.095Z,404
2023-01-21T10:32:16.829Z,407
2023-01-21T10:33:16.904Z,412
2023-01-21T10:34:16.723Z,418
2023-01-21T10:35:17.238Z,425
2023-01-21T10:36:17.013Z,423
2023-01-21T10:37:16.833Z,413
2023-01-21T10:38:16.404Z,416
2023-01-21T10:39:17.107Z,419
2023-01-21T10:40:16.920Z,412
2023-01-21T10:43:16.736Z,404
2023-01-21T10:44:17.178Z,403
2023-01-21T10:45:18.014Z,401
2023-01-21T10:46:17.341Z,415
2023-01-21T10:47:16.768Z,406
2023-01-21T10:48:17.322Z,399
2023-01-21T10:49:16.582Z,408
2023-01-21T10:50:17.211Z,412
2023-01-21T10:51:17.044Z,413
2023-01-21T10:52:17.073Z,402
2023-01-21T10:53:16.496Z,401
2023-01-21T10:54:17.434Z,412
2023-01-21T10:55:17.389Z,421
2023-01-21T10:56:17.193Z,413
2023-01-21T10:58:17.284Z,415
2023-01-21T10:59:17.165Z,417
2023-01-21T11:01:16.803Z,411
2023-01-21T11:02:17.450Z,412
2023-01-21T11:03:17.296Z,409
2023-01-21T11:04:17.022Z,401
2023-01-21T11:05:17.224Z,408
2023-01-21T11:07:17.114Z,407
2023-01-21T11:08:16.782Z,423
2023-01-21T11:09:16.915Z,412
2023-01-21T11:10:16.743Z,399
2023-01-21T11:11:16.679Z,414
2023-01-21T11:12:17.263Z,408
2023-01-21T11:13:17.136Z,405
2023-01-21T11:14:16.717Z,402
2023-01-21T11:15:21.920Z,410
2023-01-21T11:16:17.205Z,412
2023-01-21T11:17:16.921Z,416
2023-01-21T11:18:17.055Z,419
2023-01-21T11:19:17.234Z,407
2023-01-21T11:20:16.924Z,408
2023-01-21T11:21:21.575Z,417
2023-01-21T11:22:16.962Z,423
2023-01-21T11:23:16.687Z,429
2023-01-21T11:24:16.751Z,436
2023-01-21T11:25:17.884Z,416
2023-01-21T11:26:16.848Z,412
2023-01-21T11:27:17.117Z,413
2023-01-21T11:28:17.059Z,405
2023-01-21T11:29:16.845Z,406
2023-01-21T11:30:37.296Z,401
2023-01-21T11:32:16.942Z,406
2023-01-21T11:33:16.669Z,416
2023-01-21T11:34:17.153Z,422
2023-01-21T11:35:17.125Z,420
2023-01-21T11:36:17.102Z,417
2023-01-21T11:37:17.319Z,411
2023-01-21T11:39:17.492Z,414
2023-01-21T11:40:20.303Z,409
2023-01-21T11:41:17.340Z,405
2023-01-21T11:42:16.887Z,404
2023-01-21T11:43:16.776Z,413
2023-01-21T11:44:17.408Z,421
2023-01-21T11:45:17.593Z,416
2023-01-21T11:46:17.358Z,414
2023-01-21T11:47:16.807Z,409
2023-01-21T11:48:17.368Z,407
2023-01-21T11:49:35.969Z,416
2023-01-21T11:51:17.001Z,405
2023-01-21T11:52:16.811Z,416
2023-01-21T11:53:17.359Z,425
2023-01-21T11:54:17.401Z,410
2023-01-21T11:55:17.284Z,405
2023-01-21T11:56:16.905Z,412
2023-01-21T11:57:16.963Z,408
2023-01-21T11:58:16.722Z,414
2023-01-21T11:59:17.373Z,412
2023-01-21T12:02:16.921Z,399
2023-01-21T12:03:17.140Z,411
2023-01-21T12:04:17.157Z,420
2023-01-21T12:05:17.485Z,411
2023-01-21T12:06:17.608Z,405
2023-01-21T12:07:17.485Z,409
2023-01-21T12:08:16.660Z,419
2023-01-21T12:09:17.484Z,433
2023-01-21T12:10:17.389Z,424
2023-01-21T12:11:17.238Z,412
2023-01-21T12:12:17.154Z,421
2023-01-21T12:14:17.193Z,418
2023-01-21T12:15:17.016Z,411
2023-01-21T12:16:16.790Z,412
2023-01-21T12:17:16.860Z,423
2023-01-21T12:19:16.311Z,409
2023-01-21T12:20:17.213Z,405
2023-01-21T12:21:16.856Z,414
2023-01-21T12:22:16.658Z,419
2023-01-21T12:23:16.831Z,415
2023-01-21T12:24:16.584Z,417
2023-01-21T12:26:16.771Z,420
2023-01-21T12:28:16.641Z,414
2023-01-21T12:29:18.572Z,416
2023-01-21T12:30:16.870Z,412
2023-01-21T12:31:16.986Z,415
2023-01-21T12:32:16.965Z,407
2023-01-21T12:33:17.342Z,410
2023-01-21T12:34:17.120Z,416
2023-01-21T12:35:17.257Z,420
2023-01-21T12:36:17.211Z,416
2023-01-21T12:38:17.078Z,409
2023-01-21T12:39:17.118Z,407
2023-01-21T12:40:17.779Z,406
2023-01-21T12:41:17.066Z,412
2023-01-21T12:42:17.086Z,406
2023-01-21T12:43:16.951Z,413
2023-01-21T12:44:16.832Z,407
2023-01-21T12:45:17.220Z,403
2023-01-21T12:46:17.015Z,402
2023-01-21T12:47:17.006Z,404
2023-01-21T12:48:16.717Z,407
2023-01-21T12:49:16.960Z,397
2023-01-21T12:50:16.741Z,392
2023-01-21T12:51:16.859Z,391
2023-01-21T12:52:16.709Z,397
2023-01-21T12:53:16.902Z,398
2023-01-21T12:54:16.580Z,395
2023-01-21T12:55:17.702Z,387
2023-01-21T12:56:16.273Z,394
2023-01-21T12:57:17.046Z,398
2023-01-21T12:58:16.600Z,391
2023-01-21T12:59:16.814Z,389
2023-01-21T13:00:17.892Z,386
2023-01-21T13:01:17.129Z,391
2023-01-21T13:03:16.898Z,395
2023-01-21T13:04:16.826Z,393
2023-01-21T13:05:17.808Z,396
2023-01-21T13:06:16.519Z,400
2023-01-21T13:07:17.063Z,394
2023-01-21T13:09:16.766Z,396
2023-01-21T13:10:17.487Z,401
2023-01-21T13:11:17.033Z,399
2023-01-21T13:12:16.956Z,390
2023-01-21T13:13:16.840Z,400
2023-01-21T13:14:16.929Z,396
2023-01-21T13:15:17.443Z,395
2023-01-21T13:17:17.300Z,401
2023-01-21T13:18:16.931Z,402
2023-01-21T13:19:16.902Z,400
2023-01-21T13:20:16.970Z,397
2023-01-21T13:21:16.875Z,399
2023-01-21T13:22:17.075Z,393
2023-01-21T13:24:16.800Z,391
2023-01-21T13:25:16.778Z,390
2023-01-21T13:26:17.480Z,393
2023-01-21T13:27:17.008Z,399
2023-01-21T13:28:17.112Z,389
2023-01-21T13:29:16.741Z,390
2023-01-21T13:30:17.601Z,401
2023-01-21T13:31:17.028Z,396
2023-01-21T13:32:16.411Z,398
2023-01-21T13:33:16.715Z,391
2023-01-21T13:38:17.077Z,392
2023-01-21T13:39:17.001Z,395
2023-01-21T13:40:17.287Z,404
2023-01-21T13:41:16.961Z,410
2023-01-21T13:42:16.737Z,404
2023-01-21T13:43:17.201Z,394
2023-01-21T13:44:16.985Z,390
2023-01-21T13:45:17.124Z,402
2023-01-21T13:46:22.012Z,397
2023-01-21T13:47:16.728Z,396
2023-01-21T13:48:16.545Z,392
2023-01-21T13:49:17.368Z,386
2023-01-21T13:50:22.403Z,383
2023-01-21T13:51:17.385Z,391
2023-01-21T13:52:16.922Z,393
2023-01-21T13:53:16.829Z,387
2023-01-21T13:54:16.679Z,396
2023-01-21T13:55:17.515Z,382
2023-01-21T13:56:17.321Z,397
2023-01-21T13:57:16.627Z,389
2023-01-21T13:58:17.177Z,390
2023-01-21T13:59:17.143Z,402
2023-01-21T14:01:17.052Z,399
2023-01-21T14:02:30.922Z,395
2023-01-21T14:03:16.775Z,386
2023-01-21T14:04:16.636Z,388
2023-01-21T14:05:16.861Z,390
2023-01-21T14:07:17.124Z,393
2023-01-21T14:08:16.878Z,399
2023-01-21T14:09:18.296Z,395
2023-01-21T14:10:17.358Z,380
2023-01-21T14:12:17.024Z,386
2023-01-21T14:13:16.720Z,392
2023-01-21T14:14:17.273Z,391
2023-01-21T14:15:17.728Z,382
2023-01-21T14:16:16.843Z,385
2023-01-21T14:17:17.071Z,383
2023-01-21T14:18:17.039Z,391
2023-01-21T14:19:16.744Z,404
2023-01-21T14:20:17.028Z,387
2023-01-21T14:21:17.561Z,384
2023-01-21T14:22:17.304Z,387
2023-01-21T14:23:16.762Z,393
2023-01-21T14:24:17.333Z,382
2023-01-21T14:25:17.360Z,391
2023-01-21T14:26:17.225Z,397
2023-01-21T14:27:16.823Z,400
2023-01-21T14:28:16.803Z,388
2023-01-21T14:29:17.146Z,379
2023-01-21T14:30:17.549Z,384
2023-01-21T14:31:17.382Z,399
2023-01-21T14:32:17.286Z,396
2023-01-21T14:33:17.022Z,392
2023-01-21T14:34:16.860Z,396
2023-01-21T14:35:17.008Z,384
2023-01-21T14:36:16.819Z,381
2023-01-21T14:37:16.618Z,385
2023-01-21T14:38:17.104Z,382
2023-01-21T14:39:16.800Z,384
2023-01-21T14:40:17.268Z,389
2023-01-21T14:41:16.895Z,385
2023-01-21T14:42:16.974Z,387
2023-01-21T14:43:16.896Z,378
2023-01-21T14:45:16.895Z,382
2023-01-21T14:47:17.029Z,387
2023-01-21T14:48:16.895Z,384
2023-01-21T14:49:16.663Z,393
2023-01-21T14:50:17.550Z,392
2023-01-21T14:51:17.133Z,395
2023-01-21T14:52:17.357Z,400
2023-01-21T14:54:16.897Z,399
2023-01-21T14:55:17.300Z,384
2023-01-21T14:56:17.197Z,390
2023-01-21T14:57:19.024Z,388
2023-01-21T14:58:17.388Z,393
2023-01-21T15:01:17.243Z,396
2023-01-21T15:02:17.262Z,397
2023-01-21T15:03:17.091Z,387
2023-01-21T15:04:17.091Z,381
2023-01-21T15:05:17.375Z,394
2023-01-21T15:06:17.321Z,405